C.kormakitis, Cyprus
Current Conditions -  °F | °C
As of 12:20 AM on Thursday 23 Oct 2014 (Local Time) from LCEN Reporting Station
Scattered Clouds Scattered Clouds  
Wind Chill: 59°   Ceiling: Unl
Heat Index: 59°   Visibility: 6mi
Dew Point: 52°   Wind: 6mph
Humidity: 77%   Direction: 260°W
Pressure: 29.97"   Gusts: NA
Location:  35.35°N, 32.95°E
Report Text: LCEN 222120Z 26005KT 9999 FEW030 SCT160 15/11 Q1015 NOSIG
Loading
Personal Weather Stations






























Interactive Weather Map New forecast layout! Learn more

10-Day Weather Forecast

Advertisements
Track Severe Weather on mobile